sensor_id;sensor_type;location;lat;lon;timestamp;P1;durP1;ratioP1;P2;durP2;ratioP2
78740;SDS011;68062;48.726;9.370;2023-05-10T00:01:29;2.93;;;1.83;;
78740;SDS011;68062;48.726;9.370;2023-05-10T00:03:56;2.00;;;1.90;;
78740;SDS011;68062;48.726;9.370;2023-05-10T00:06:22;2.07;;;1.80;;
78740;SDS011;68062;48.726;9.370;2023-05-10T00:08:49;4.23;;;2.47;;
78740;SDS011;68062;48.726;9.370;2023-05-10T00:11:16;3.00;;;2.00;;
78740;SDS011;68062;48.726;9.370;2023-05-10T00:13:43;4.70;;;2.33;;
78740;SDS011;68062;48.726;9.370;2023-05-10T00:16:11;3.20;;;1.67;;
78740;SDS011;68062;48.726;9.370;2023-05-10T00:18:38;4.37;;;2.50;;
78740;SDS011;68062;48.726;9.370;2023-05-10T00:21:05;3.63;;;2.50;;
78740;SDS011;68062;48.726;9.370;2023-05-10T00:23:32;3.00;;;2.47;;
78740;SDS011;68062;48.726;9.370;2023-05-10T00:25:58;3.40;;;2.87;;
78740;SDS011;68062;48.726;9.370;2023-05-10T00:28:25;2.57;;;2.37;;
78740;SDS011;68062;48.726;9.370;2023-05-10T00:30:54;2.97;;;2.67;;
78740;SDS011;68062;48.726;9.370;2023-05-10T00:33:21;2.77;;;2.13;;
78740;SDS011;68062;48.726;9.370;2023-05-10T00:35:48;1.83;;;1.70;;
78740;SDS011;68062;48.726;9.370;2023-05-10T00:38:15;2.07;;;1.93;;
78740;SDS011;68062;48.726;9.370;2023-05-10T00:40:41;2.50;;;1.57;;
78740;SDS011;68062;48.726;9.370;2023-05-10T00:43:17;2.47;;;1.30;;
78740;SDS011;68062;48.726;9.370;2023-05-10T00:45:43;2.03;;;1.23;;
78740;SDS011;68062;48.726;9.370;2023-05-10T00:48:12;1.63;;;1.53;;
78740;SDS011;68062;48.726;9.370;2023-05-10T00:50:39;1.10;;;1.03;;
78740;SDS011;68062;48.726;9.370;2023-05-10T00:53:06;0.93;;;0.83;;
78740;SDS011;68062;48.726;9.370;2023-05-10T00:55:34;1.00;;;1.00;;
78740;SDS011;68062;48.726;9.370;2023-05-10T00:58:01;3.20;;;0.70;;
78740;SDS011;68062;48.726;9.370;2023-05-10T01:00:28;0.60;;;0.57;;
78740;SDS011;68062;48.726;9.370;2023-05-10T01:02:55;2.60;;;0.70;;
78740;SDS011;68062;48.726;9.370;2023-05-10T01:05:23;1.87;;;0.60;;
78740;SDS011;68062;48.726;9.370;2023-05-10T01:07:49;1.77;;;0.60;;
78740;SDS011;68062;48.726;9.370;2023-05-10T01:10:16;0.50;;;0.50;;
78740;SDS011;68062;48.726;9.370;2023-05-10T01:12:45;0.70;;;0.70;;
78740;SDS011;68062;48.726;9.370;2023-05-10T01:15:14;0.50;;;0.50;;
78740;SDS011;68062;48.726;9.370;2023-05-10T01:17:44;1.47;;;0.73;;
78740;SDS011;68062;48.726;9.370;2023-05-10T01:20:13;2.93;;;0.50;;
78740;SDS011;68062;48.726;9.370;2023-05-10T01:23:06;1.10;;;0.80;;
78740;SDS011;68062;48.726;9.370;2023-05-10T01:26:02;0.60;;;0.50;;
78740;SDS011;68062;48.726;9.370;2023-05-10T01:34:54;0.80;;;0.70;;
78740;SDS011;68062;48.726;9.370;2023-05-10T01:37:31;3.17;;;0.60;;
78740;SDS011;68062;48.726;9.370;2023-05-10T01:40:08;0.50;;;0.47;;
78740;SDS011;68062;48.726;9.370;2023-05-10T01:42:42;1.47;;;0.50;;
78740;SDS011;68062;48.726;9.370;2023-05-10T01:45:15;0.40;;;0.40;;
78740;SDS011;68062;48.726;9.370;2023-05-10T01:47:46;1.80;;;0.53;;
78740;SDS011;68062;48.726;9.370;2023-05-10T01:50:22;0.70;;;0.40;;
78740;SDS011;68062;48.726;9.370;2023-05-10T01:52:54;1.37;;;0.60;;
78740;SDS011;68062;48.726;9.370;2023-05-10T01:55:23;0.70;;;0.70;;
78740;SDS011;68062;48.726;9.370;2023-05-10T01:57:52;0.40;;;0.40;;
78740;SDS011;68062;48.726;9.370;2023-05-10T02:00:24;0.90;;;0.80;;
78740;SDS011;68062;48.726;9.370;2023-05-10T02:02:52;0.77;;;0.60;;
78740;SDS011;68062;48.726;9.370;2023-05-10T02:05:22;0.93;;;0.50;;
78740;SDS011;68062;48.726;9.370;2023-05-10T02:07:49;0.60;;;0.60;;
78740;SDS011;68062;48.726;9.370;2023-05-10T02:10:17;0.60;;;0.50;;
78740;SDS011;68062;48.726;9.370;2023-05-10T02:12:46;0.60;;;0.50;;
78740;SDS011;68062;48.726;9.370;2023-05-10T02:15:17;1.23;;;0.60;;
78740;SDS011;68062;48.726;9.370;2023-05-10T02:17:46;8.47;;;0.90;;
78740;SDS011;68062;48.726;9.370;2023-05-10T02:20:13;0.60;;;0.53;;
78740;SDS011;68062;48.726;9.370;2023-05-10T02:22:45;1.20;;;0.60;;
78740;SDS011;68062;48.726;9.370;2023-05-10T02:25:15;1.10;;;0.83;;
78740;SDS011;68062;48.726;9.370;2023-05-10T02:27:44;1.37;;;0.80;;
78740;SDS011;68062;48.726;9.370;2023-05-10T02:30:12;1.23;;;0.80;;
78740;SDS011;68062;48.726;9.370;2023-05-10T02:32:40;0.87;;;0.70;;
78740;SDS011;68062;48.726;9.370;2023-05-10T02:35:08;0.70;;;0.67;;
78740;SDS011;68062;48.726;9.370;2023-05-10T02:37:36;1.63;;;0.60;;
78740;SDS011;68062;48.726;9.370;2023-05-10T02:40:06;1.10;;;0.60;;
78740;SDS011;68062;48.726;9.370;2023-05-10T02:42:35;0.80;;;0.70;;
78740;SDS011;68062;48.726;9.370;2023-05-10T02:45:05;1.00;;;0.87;;
78740;SDS011;68062;48.726;9.370;2023-05-10T02:47:36;3.50;;;1.00;;
78740;SDS011;68062;48.726;9.370;2023-05-10T02:50:04;0.87;;;0.73;;
78740;SDS011;68062;48.726;9.370;2023-05-10T02:52:35;1.40;;;0.73;;
78740;SDS011;68062;48.726;9.370;2023-05-10T02:55:07;3.13;;;0.80;;
78740;SDS011;68062;48.726;9.370;2023-05-10T02:57:38;1.50;;;0.90;;
78740;SDS011;68062;48.726;9.370;2023-05-10T03:00:09;0.80;;;0.70;;
78740;SDS011;68062;48.726;9.370;2023-05-10T03:02:37;0.83;;;0.73;;
78740;SDS011;68062;48.726;9.370;2023-05-10T03:05:04;1.47;;;0.57;;
78740;SDS011;68062;48.726;9.370;2023-05-10T03:07:31;1.00;;;0.80;;
78740;SDS011;68062;48.726;9.370;2023-05-10T03:09:59;2.20;;;0.83;;
78740;SDS011;68062;48.726;9.370;2023-05-10T03:12:30;2.20;;;1.00;;
78740;SDS011;68062;48.726;9.370;2023-05-10T03:15:07;3.83;;;1.07;;
78740;SDS011;68062;48.726;9.370;2023-05-10T03:17:41;0.87;;;0.83;;
78740;SDS011;68062;48.726;9.370;2023-05-10T03:20:16;1.27;;;0.60;;
78740;SDS011;68062;48.726;9.370;2023-05-10T03:22:50;2.90;;;0.73;;
78740;SDS011;68062;48.726;9.370;2023-05-10T03:25:19;0.80;;;0.73;;
78740;SDS011;68062;48.726;9.370;2023-05-10T03:27:51;2.67;;;1.17;;
78740;SDS011;68062;48.726;9.370;2023-05-10T03:30:18;2.03;;;0.80;;
78740;SDS011;68062;48.726;9.370;2023-05-10T03:32:45;0.90;;;0.80;;
78740;SDS011;68062;48.726;9.370;2023-05-10T03:35:15;1.47;;;0.70;;
78740;SDS011;68062;48.726;9.370;2023-05-10T03:37:42;1.17;;;0.83;;
78740;SDS011;68062;48.726;9.370;2023-05-10T03:40:10;1.00;;;0.87;;
78740;SDS011;68062;48.726;9.370;2023-05-10T03:42:39;1.00;;;0.93;;
78740;SDS011;68062;48.726;9.370;2023-05-10T03:45:08;1.83;;;1.07;;
78740;SDS011;68062;48.726;9.370;2023-05-10T03:47:35;1.20;;;0.97;;
78740;SDS011;68062;48.726;9.370;2023-05-10T03:50:02;1.80;;;1.20;;
78740;SDS011;68062;48.726;9.370;2023-05-10T03:52:29;1.17;;;0.83;;
78740;SDS011;68062;48.726;9.370;2023-05-10T03:54:57;2.23;;;0.77;;
78740;SDS011;68062;48.726;9.370;2023-05-10T03:57:24;2.40;;;0.93;;
78740;SDS011;68062;48.726;9.370;2023-05-10T03:59:50;2.83;;;0.70;;
78740;SDS011;68062;48.726;9.370;2023-05-10T04:02:18;0.93;;;0.80;;
78740;SDS011;68062;48.726;9.370;2023-05-10T04:04:45;1.30;;;0.83;;
78740;SDS011;68062;48.726;9.370;2023-05-10T04:07:11;1.10;;;0.97;;
78740;SDS011;68062;48.726;9.370;2023-05-10T04:09:38;2.00;;;1.07;;
78740;SDS011;68062;48.726;9.370;2023-05-10T04:12:05;2.80;;;1.00;;
78740;SDS011;68062;48.726;9.370;2023-05-10T04:14:32;1.33;;;0.90;;
78740;SDS011;68062;48.726;9.370;2023-05-10T04:16:58;2.30;;;1.20;;
78740;SDS011;68062;48.726;9.370;2023-05-10T04:19:29;1.60;;;1.00;;
78740;SDS011;68062;48.726;9.370;2023-05-10T04:21:56;3.63;;;1.40;;
78740;SDS011;68062;48.726;9.370;2023-05-10T04:24:23;0.97;;;0.93;;
78740;SDS011;68062;48.726;9.370;2023-05-10T04:26:50;1.70;;;0.90;;
78740;SDS011;68062;48.726;9.370;2023-05-10T04:29:16;1.70;;;0.90;;
78740;SDS011;68062;48.726;9.370;2023-05-10T04:31:43;4.00;;;1.53;;
78740;SDS011;68062;48.726;9.370;2023-05-10T04:34:09;2.10;;;1.17;;
78740;SDS011;68062;48.726;9.370;2023-05-10T04:36:37;1.27;;;1.20;;
78740;SDS011;68062;48.726;9.370;2023-05-10T04:39:04;1.50;;;1.23;;
78740;SDS011;68062;48.726;9.370;2023-05-10T04:41:30;1.20;;;1.20;;
78740;SDS011;68062;48.726;9.370;2023-05-10T04:43:57;1.17;;;1.13;;
78740;SDS011;68062;48.726;9.370;2023-05-10T04:46:23;1.10;;;0.97;;
78740;SDS011;68062;48.726;9.370;2023-05-10T04:48:50;1.67;;;1.27;;
78740;SDS011;68062;48.726;9.370;2023-05-10T04:51:18;1.30;;;1.20;;
78740;SDS011;68062;48.726;9.370;2023-05-10T04:53:46;2.83;;;1.10;;
78740;SDS011;68062;48.726;9.370;2023-05-10T04:56:13;0.97;;;0.90;;
78740;SDS011;68062;48.726;9.370;2023-05-10T04:58:40;1.67;;;1.00;;
78740;SDS011;68062;48.726;9.370;2023-05-10T05:01:06;1.47;;;1.20;;
78740;SDS011;68062;48.726;9.370;2023-05-10T05:03:34;1.97;;;1.10;;
78740;SDS011;68062;48.726;9.370;2023-05-10T05:06:01;2.77;;;1.10;;
78740;SDS011;68062;48.726;9.370;2023-05-10T05:08:28;1.47;;;1.20;;
78740;SDS011;68062;48.726;9.370;2023-05-10T05:10:56;1.67;;;1.23;;
78740;SDS011;68062;48.726;9.370;2023-05-10T05:13:22;2.97;;;1.60;;
78740;SDS011;68062;48.726;9.370;2023-05-10T05:15:49;4.50;;;1.50;;
78740;SDS011;68062;48.726;9.370;2023-05-10T05:18:17;1.40;;;1.03;;
78740;SDS011;68062;48.726;9.370;2023-05-10T05:20:43;2.80;;;1.43;;
78740;SDS011;68062;48.726;9.370;2023-05-10T05:23:10;3.70;;;1.73;;
78740;SDS011;68062;48.726;9.370;2023-05-10T05:25:36;3.33;;;1.20;;
78740;SDS011;68062;48.726;9.370;2023-05-10T05:28:04;1.20;;;1.10;;
78740;SDS011;68062;48.726;9.370;2023-05-10T05:30:31;1.30;;;1.20;;
78740;SDS011;68062;48.726;9.370;2023-05-10T05:32:58;1.33;;;1.23;;
78740;SDS011;68062;48.726;9.370;2023-05-10T05:35:24;2.90;;;1.70;;
78740;SDS011;68062;48.726;9.370;2023-05-10T05:37:51;2.00;;;1.30;;
78740;SDS011;68062;48.726;9.370;2023-05-10T05:40:17;1.77;;;1.50;;
78740;SDS011;68062;48.726;9.370;2023-05-10T05:42:45;1.33;;;0.93;;
78740;SDS011;68062;48.726;9.370;2023-05-10T05:45:13;1.33;;;0.90;;
78740;SDS011;68062;48.726;9.370;2023-05-10T05:47:40;1.77;;;1.43;;
78740;SDS011;68062;48.726;9.370;2023-05-10T05:50:07;4.03;;;1.50;;
78740;SDS011;68062;48.726;9.370;2023-05-10T05:52:34;1.47;;;1.37;;
78740;SDS011;68062;48.726;9.370;2023-05-10T05:55:01;3.27;;;1.73;;
78740;SDS011;68062;48.726;9.370;2023-05-10T05:57:28;1.00;;;0.93;;
78740;SDS011;68062;48.726;9.370;2023-05-10T05:59:56;1.73;;;1.13;;
78740;SDS011;68062;48.726;9.370;2023-05-10T06:02:24;1.40;;;1.17;;
78740;SDS011;68062;48.726;9.370;2023-05-10T06:04:50;2.10;;;1.80;;
78740;SDS011;68062;48.726;9.370;2023-05-10T06:07:16;2.20;;;1.10;;
78740;SDS011;68062;48.726;9.370;2023-05-10T06:09:43;2.20;;;1.13;;
78740;SDS011;68062;48.726;9.370;2023-05-10T06:12:09;1.40;;;1.30;;
78740;SDS011;68062;48.726;9.370;2023-05-10T06:14:37;1.40;;;1.20;;
78740;SDS011;68062;48.726;9.370;2023-05-10T06:17:03;1.60;;;1.30;;
78740;SDS011;68062;48.726;9.370;2023-05-10T06:19:31;2.37;;;1.70;;
78740;SDS011;68062;48.726;9.370;2023-05-10T06:21:58;3.03;;;1.30;;
78740;SDS011;68062;48.726;9.370;2023-05-10T06:24:24;2.30;;;1.60;;
78740;SDS011;68062;48.726;9.370;2023-05-10T06:26:52;3.87;;;1.60;;
78740;SDS011;68062;48.726;9.370;2023-05-10T06:29:18;4.97;;;3.53;;
78740;SDS011;68062;48.726;9.370;2023-05-10T06:31:45;1.70;;;1.60;;
78740;SDS011;68062;48.726;9.370;2023-05-10T06:34:11;3.60;;;2.23;;
78740;SDS011;68062;48.726;9.370;2023-05-10T06:36:39;2.63;;;1.57;;
78740;SDS011;68062;48.726;9.370;2023-05-10T06:39:06;1.63;;;0.90;;
78740;SDS011;68062;48.726;9.370;2023-05-10T06:41:33;4.20;;;2.10;;
78740;SDS011;68062;48.726;9.370;2023-05-10T06:43:59;2.80;;;1.83;;
78740;SDS011;68062;48.726;9.370;2023-05-10T06:46:26;2.80;;;2.67;;
78740;SDS011;68062;48.726;9.370;2023-05-10T06:48:52;5.60;;;1.80;;
78740;SDS011;68062;48.726;9.370;2023-05-10T06:51:19;1.20;;;1.10;;
78740;SDS011;68062;48.726;9.370;2023-05-10T06:53:47;4.73;;;1.67;;
78740;SDS011;68062;48.726;9.370;2023-05-10T06:56:14;2.00;;;1.33;;
78740;SDS011;68062;48.726;9.370;2023-05-10T06:58:41;1.73;;;1.40;;
78740;SDS011;68062;48.726;9.370;2023-05-10T07:01:07;1.27;;;1.17;;
78740;SDS011;68062;48.726;9.370;2023-05-10T07:03:34;1.30;;;1.20;;
78740;SDS011;68062;48.726;9.370;2023-05-10T07:06:01;3.70;;;1.27;;
78740;SDS011;68062;48.726;9.370;2023-05-10T07:08:29;1.47;;;1.37;;
78740;SDS011;68062;48.726;9.370;2023-05-10T07:11:00;2.17;;;1.50;;
78740;SDS011;68062;48.726;9.370;2023-05-10T07:13:28;1.80;;;1.67;;
78740;SDS011;68062;48.726;9.370;2023-05-10T07:15:55;2.87;;;1.27;;
78740;SDS011;68062;48.726;9.370;2023-05-10T07:18:22;3.50;;;1.50;;
78740;SDS011;68062;48.726;9.370;2023-05-10T07:20:48;2.03;;;1.40;;
78740;SDS011;68062;48.726;9.370;2023-05-10T07:23:15;1.90;;;1.80;;
78740;SDS011;68062;48.726;9.370;2023-05-10T07:25:44;4.80;;;2.30;;
78740;SDS011;68062;48.726;9.370;2023-05-10T07:28:12;4.03;;;1.57;;
78740;SDS011;68062;48.726;9.370;2023-05-10T07:30:39;2.40;;;1.70;;
78740;SDS011;68062;48.726;9.370;2023-05-10T07:33:06;13.00;;;2.20;;
78740;SDS011;68062;48.726;9.370;2023-05-10T07:35:33;4.73;;;1.67;;
78740;SDS011;68062;48.726;9.370;2023-05-10T07:38:00;2.00;;;1.70;;
78740;SDS011;68062;48.726;9.370;2023-05-10T07:40:27;1.67;;;1.27;;
78740;SDS011;68062;48.726;9.370;2023-05-10T07:42:54;1.50;;;1.30;;
78740;SDS011;68062;48.726;9.370;2023-05-10T07:45:22;1.60;;;1.57;;
78740;SDS011;68062;48.726;9.370;2023-05-10T07:47:49;3.63;;;1.60;;
78740;SDS011;68062;48.726;9.370;2023-05-10T07:50:16;3.03;;;1.87;;
78740;SDS011;68062;48.726;9.370;2023-05-10T07:52:43;1.50;;;1.40;;
78740;SDS011;68062;48.726;9.370;2023-05-10T07:55:09;1.10;;;1.00;;
78740;SDS011;68062;48.726;9.370;2023-05-10T07:57:37;4.10;;;1.30;;
78740;SDS011;68062;48.726;9.370;2023-05-10T08:00:04;1.27;;;0.73;;
78740;SDS011;68062;48.726;9.370;2023-05-10T08:02:39;1.90;;;1.23;;
78740;SDS011;68062;48.726;9.370;2023-05-10T08:05:07;2.00;;;1.10;;
78740;SDS011;68062;48.726;9.370;2023-05-10T08:07:34;4.20;;;1.20;;
78740;SDS011;68062;48.726;9.370;2023-05-10T08:10:01;1.83;;;1.10;;
78740;SDS011;68062;48.726;9.370;2023-05-10T08:12:27;1.30;;;1.20;;
78740;SDS011;68062;48.726;9.370;2023-05-10T08:14:54;2.50;;;1.10;;
78740;SDS011;68062;48.726;9.370;2023-05-10T08:17:21;3.43;;;1.30;;
78740;SDS011;68062;48.726;9.370;2023-05-10T08:19:49;1.57;;;1.20;;
78740;SDS011;68062;48.726;9.370;2023-05-10T08:22:15;1.10;;;0.93;;
78740;SDS011;68062;48.726;9.370;2023-05-10T08:24:42;1.60;;;1.43;;
78740;SDS011;68062;48.726;9.370;2023-05-10T08:27:09;2.40;;;1.17;;
78740;SDS011;68062;48.726;9.370;2023-05-10T08:29:36;1.40;;;1.30;;
78740;SDS011;68062;48.726;9.370;2023-05-10T08:32:03;3.47;;;0.80;;
78740;SDS011;68062;48.726;9.370;2023-05-10T08:34:30;0.93;;;0.80;;
78740;SDS011;68062;48.726;9.370;2023-05-10T08:36:58;7.43;;;1.20;;
78740;SDS011;68062;48.726;9.370;2023-05-10T08:43:12;1.87;;;0.80;;
78740;SDS011;68062;48.726;9.370;2023-05-10T08:45:41;1.17;;;1.07;;
78740;SDS011;68062;48.726;9.370;2023-05-10T08:51:59;1.73;;;1.03;;
78740;SDS011;68062;48.726;9.370;2023-05-10T08:54:29;1.50;;;1.23;;
78740;SDS011;68062;48.726;9.370;2023-05-10T08:57:15;1.87;;;0.93;;
78740;SDS011;68062;48.726;9.370;2023-05-10T08:59:42;1.43;;;1.00;;
78740;SDS011;68062;48.726;9.370;2023-05-10T09:02:09;0.77;;;0.70;;
78740;SDS011;68062;48.726;9.370;2023-05-10T09:04:37;0.90;;;0.83;;
78740;SDS011;68062;48.726;9.370;2023-05-10T09:07:05;5.00;;;0.90;;
78740;SDS011;68062;48.726;9.370;2023-05-10T09:09:32;4.57;;;1.07;;
78740;SDS011;68062;48.726;9.370;2023-05-10T09:11:59;1.30;;;0.67;;
78740;SDS011;68062;48.726;9.370;2023-05-10T09:14:26;0.90;;;0.90;;
78740;SDS011;68062;48.726;9.370;2023-05-10T09:16:53;1.37;;;0.80;;
78740;SDS011;68062;48.726;9.370;2023-05-10T09:19:20;0.80;;;0.70;;
78740;SDS011;68062;48.726;9.370;2023-05-10T09:21:46;1.23;;;1.13;;
78740;SDS011;68062;48.726;9.370;2023-05-10T09:24:17;1.23;;;0.80;;
78740;SDS011;68062;48.726;9.370;2023-05-10T09:26:47;0.90;;;0.70;;
78740;SDS011;68062;48.726;9.370;2023-05-10T09:29:15;2.00;;;0.87;;
78740;SDS011;68062;48.726;9.370;2023-05-10T09:31:46;0.80;;;0.60;;
78740;SDS011;68062;48.726;9.370;2023-05-10T09:34:16;2.03;;;0.90;;
78740;SDS011;68062;48.726;9.370;2023-05-10T09:36:50;1.23;;;0.97;;
78740;SDS011;68062;48.726;9.370;2023-05-10T09:39:19;0.80;;;0.70;;
78740;SDS011;68062;48.726;9.370;2023-05-10T09:41:46;1.43;;;1.37;;
78740;SDS011;68062;48.726;9.370;2023-05-10T09:44:16;0.87;;;0.77;;
78740;SDS011;68062;48.726;9.370;2023-05-10T09:46:48;1.40;;;0.77;;
78740;SDS011;68062;48.726;9.370;2023-05-10T09:49:15;1.93;;;0.80;;
78740;SDS011;68062;48.726;9.370;2023-05-10T09:51:42;0.97;;;0.87;;
78740;SDS011;68062;48.726;9.370;2023-05-10T09:54:09;2.80;;;0.93;;
78740;SDS011;68062;48.726;9.370;2023-05-10T09:56:38;2.30;;;0.90;;
78740;SDS011;68062;48.726;9.370;2023-05-10T09:59:06;1.17;;;1.10;;
78740;SDS011;68062;48.726;9.370;2023-05-10T10:01:33;2.43;;;1.07;;
78740;SDS011;68062;48.726;9.370;2023-05-10T10:04:02;1.10;;;0.80;;
78740;SDS011;68062;48.726;9.370;2023-05-10T10:13:45;1.17;;;1.10;;
78740;SDS011;68062;48.726;9.370;2023-05-10T10:19:59;1.17;;;0.80;;
78740;SDS011;68062;48.726;9.370;2023-05-10T10:22:36;1.43;;;0.63;;
78740;SDS011;68062;48.726;9.370;2023-05-10T10:28:56;1.03;;;0.80;;
78740;SDS011;68062;48.726;9.370;2023-05-10T10:31:32;0.80;;;0.70;;
78740;SDS011;68062;48.726;9.370;2023-05-10T10:34:03;1.83;;;1.03;;
78740;SDS011;68062;48.726;9.370;2023-05-10T10:36:33;0.80;;;0.70;;
78740;SDS011;68062;48.726;9.370;2023-05-10T10:39:08;1.90;;;0.77;;
78740;SDS011;68062;48.726;9.370;2023-05-10T10:41:36;0.73;;;0.70;;
78740;SDS011;68062;48.726;9.370;2023-05-10T10:44:26;2.23;;;1.00;;
78740;SDS011;68062;48.726;9.370;2023-05-10T10:47:04;1.40;;;0.87;;
78740;SDS011;68062;48.726;9.370;2023-05-10T10:49:38;2.60;;;1.20;;
78740;SDS011;68062;48.726;9.370;2023-05-10T10:52:21;3.03;;;0.90;;
78740;SDS011;68062;48.726;9.370;2023-05-10T10:54:52;1.47;;;1.03;;
78740;SDS011;68062;48.726;9.370;2023-05-10T10:57:20;0.93;;;0.90;;
78740;SDS011;68062;48.726;9.370;2023-05-10T10:59:49;3.60;;;0.70;;
78740;SDS011;68062;48.726;9.370;2023-05-10T11:02:34;2.53;;;1.50;;
78740;SDS011;68062;48.726;9.370;2023-05-10T11:05:23;2.80;;;0.90;;
78740;SDS011;68062;48.726;9.370;2023-05-10T11:08:00;0.87;;;0.67;;
78740;SDS011;68062;48.726;9.370;2023-05-10T11:10:34;1.83;;;0.90;;
78740;SDS011;68062;48.726;9.370;2023-05-10T11:13:01;0.77;;;0.67;;
78740;SDS011;68062;48.726;9.370;2023-05-10T11:15:30;1.50;;;0.90;;
78740;SDS011;68062;48.726;9.370;2023-05-10T11:17:57;1.10;;;0.60;;
78740;SDS011;68062;48.726;9.370;2023-05-10T11:20:26;0.50;;;0.50;;
78740;SDS011;68062;48.726;9.370;2023-05-10T11:22:59;1.07;;;1.00;;
78740;SDS011;68062;48.726;9.370;2023-05-10T11:25:41;1.03;;;0.93;;
78740;SDS011;68062;48.726;9.370;2023-05-10T11:28:11;1.03;;;0.90;;
78740;SDS011;68062;48.726;9.370;2023-05-10T11:30:39;1.17;;;0.67;;
78740;SDS011;68062;48.726;9.370;2023-05-10T11:33:07;0.60;;;0.60;;
78740;SDS011;68062;48.726;9.370;2023-05-10T11:35:37;1.77;;;0.90;;
78740;SDS011;68062;48.726;9.370;2023-05-10T11:38:05;2.43;;;0.97;;
78740;SDS011;68062;48.726;9.370;2023-05-10T11:40:32;0.93;;;0.67;;
78740;SDS011;68062;48.726;9.370;2023-05-10T11:42:59;1.40;;;0.73;;
78740;SDS011;68062;48.726;9.370;2023-05-10T11:45:25;1.67;;;1.20;;
78740;SDS011;68062;48.726;9.370;2023-05-10T11:47:55;1.63;;;0.80;;
78740;SDS011;68062;48.726;9.370;2023-05-10T11:50:22;1.53;;;0.70;;
78740;SDS011;68062;48.726;9.370;2023-05-10T11:52:50;0.90;;;0.50;;
78740;SDS011;68062;48.726;9.370;2023-05-10T11:55:17;0.90;;;0.60;;
78740;SDS011;68062;48.726;9.370;2023-05-10T11:57:44;1.77;;;0.60;;
78740;SDS011;68062;48.726;9.370;2023-05-10T12:00:11;1.47;;;0.70;;
78740;SDS011;68062;48.726;9.370;2023-05-10T12:02:40;1.27;;;1.03;;
78740;SDS011;68062;48.726;9.370;2023-05-10T12:05:09;0.90;;;0.80;;
78740;SDS011;68062;48.726;9.370;2023-05-10T12:07:36;1.70;;;0.70;;
78740;SDS011;68062;48.726;9.370;2023-05-10T12:10:04;0.80;;;0.70;;
78740;SDS011;68062;48.726;9.370;2023-05-10T12:12:39;3.20;;;1.07;;
78740;SDS011;68062;48.726;9.370;2023-05-10T12:15:12;0.77;;;0.70;;
78740;SDS011;68062;48.726;9.370;2023-05-10T12:17:44;1.87;;;1.30;;
78740;SDS011;68062;48.726;9.370;2023-05-10T12:20:16;1.93;;;1.00;;
78740;SDS011;68062;48.726;9.370;2023-05-10T12:22:45;1.00;;;0.87;;
78740;SDS011;68062;48.726;9.370;2023-05-10T12:29:12;1.27;;;0.90;;
78740;SDS011;68062;48.726;9.370;2023-05-10T12:31:51;2.27;;;1.00;;
78740;SDS011;68062;48.726;9.370;2023-05-10T12:34:25;2.23;;;1.30;;
78740;SDS011;68062;48.726;9.370;2023-05-10T12:36:56;1.70;;;0.90;;
78740;SDS011;68062;48.726;9.370;2023-05-10T12:39:23;1.90;;;1.00;;
78740;SDS011;68062;48.726;9.370;2023-05-10T12:41:50;1.93;;;1.10;;
78740;SDS011;68062;48.726;9.370;2023-05-10T12:44:17;2.47;;;1.13;;
78740;SDS011;68062;48.726;9.370;2023-05-10T12:46:45;1.27;;;1.00;;
78740;SDS011;68062;48.726;9.370;2023-05-10T12:49:12;1.67;;;1.30;;
78740;SDS011;68062;48.726;9.370;2023-05-10T12:51:39;0.97;;;0.80;;
78740;SDS011;68062;48.726;9.370;2023-05-10T12:54:07;1.20;;;0.90;;
78740;SDS011;68062;48.726;9.370;2023-05-10T12:56:34;2.67;;;1.30;;
78740;SDS011;68062;48.726;9.370;2023-05-10T12:59:00;2.70;;;1.77;;
78740;SDS011;68062;48.726;9.370;2023-05-10T13:01:27;2.93;;;1.67;;
78740;SDS011;68062;48.726;9.370;2023-05-10T13:03:54;3.43;;;1.40;;
78740;SDS011;68062;48.726;9.370;2023-05-10T13:06:21;2.80;;;1.43;;
78740;SDS011;68062;48.726;9.370;2023-05-10T13:08:47;1.53;;;1.13;;
78740;SDS011;68062;48.726;9.370;2023-05-10T13:11:15;2.60;;;1.33;;
78740;SDS011;68062;48.726;9.370;2023-05-10T13:13:42;6.20;;;2.17;;
78740;SDS011;68062;48.726;9.370;2023-05-10T13:16:08;2.53;;;2.33;;
78740;SDS011;68062;48.726;9.370;2023-05-10T13:18:35;4.53;;;2.47;;
78740;SDS011;68062;48.726;9.370;2023-05-10T13:21:02;4.00;;;2.40;;
78740;SDS011;68062;48.726;9.370;2023-05-10T13:23:30;6.40;;;2.23;;
78740;SDS011;68062;48.726;9.370;2023-05-10T13:25:57;2.50;;;1.53;;
78740;SDS011;68062;48.726;9.370;2023-05-10T13:32:12;2.00;;;1.40;;
78740;SDS011;68062;48.726;9.370;2023-05-10T13:34:38;3.20;;;2.30;;
78740;SDS011;68062;48.726;9.370;2023-05-10T13:37:05;2.83;;;2.20;;
78740;SDS011;68062;48.726;9.370;2023-05-10T13:39:32;2.10;;;1.23;;
78740;SDS011;68062;48.726;9.370;2023-05-10T13:41:59;3.17;;;1.30;;
78740;SDS011;68062;48.726;9.370;2023-05-10T13:44:26;3.20;;;1.27;;
78740;SDS011;68062;48.726;9.370;2023-05-10T13:46:53;1.50;;;1.47;;
78740;SDS011;68062;48.726;9.370;2023-05-10T13:49:21;5.13;;;1.80;;
78740;SDS011;68062;48.726;9.370;2023-05-10T13:55:13;2.30;;;1.07;;
78740;SDS011;68062;48.726;9.370;2023-05-10T13:57:39;2.53;;;1.73;;
78740;SDS011;68062;48.726;9.370;2023-05-10T14:00:07;2.17;;;1.47;;
78740;SDS011;68062;48.726;9.370;2023-05-10T14:02:34;3.47;;;1.60;;
78740;SDS011;68062;48.726;9.370;2023-05-10T14:05:03;1.53;;;1.50;;
78740;SDS011;68062;48.726;9.370;2023-05-10T14:07:30;1.80;;;1.70;;
78740;SDS011;68062;48.726;9.370;2023-05-10T14:09:57;1.90;;;1.50;;
78740;SDS011;68062;48.726;9.370;2023-05-10T14:12:23;1.20;;;1.10;;
78740;SDS011;68062;48.726;9.370;2023-05-10T14:14:50;2.00;;;1.90;;
78740;SDS011;68062;48.726;9.370;2023-05-10T14:17:17;2.70;;;1.60;;
78740;SDS011;68062;48.726;9.370;2023-05-10T14:19:44;2.93;;;1.30;;
78740;SDS011;68062;48.726;9.370;2023-05-10T14:22:12;3.43;;;2.13;;
78740;SDS011;68062;48.726;9.370;2023-05-10T14:24:39;2.47;;;2.27;;
78740;SDS011;68062;48.726;9.370;2023-05-10T14:27:06;3.03;;;2.10;;
78740;SDS011;68062;48.726;9.370;2023-05-10T14:29:32;2.70;;;1.80;;
78740;SDS011;68062;48.726;9.370;2023-05-10T14:31:59;3.20;;;1.80;;
78740;SDS011;68062;48.726;9.370;2023-05-10T14:34:26;2.20;;;1.80;;
78740;SDS011;68062;48.726;9.370;2023-05-10T14:36:53;2.07;;;1.50;;
78740;SDS011;68062;48.726;9.370;2023-05-10T14:39:21;3.20;;;1.57;;
78740;SDS011;68062;48.726;9.370;2023-05-10T14:41:48;4.57;;;2.00;;
78740;SDS011;68062;48.726;9.370;2023-05-10T14:44:16;2.50;;;1.93;;
78740;SDS011;68062;48.726;9.370;2023-05-10T14:46:43;2.70;;;1.97;;
78740;SDS011;68062;48.726;9.370;2023-05-10T14:49:10;2.20;;;2.00;;
78740;SDS011;68062;48.726;9.370;2023-05-10T14:51:36;2.50;;;1.73;;
78740;SDS011;68062;48.726;9.370;2023-05-10T14:54:03;1.30;;;1.30;;
78740;SDS011;68062;48.726;9.370;2023-05-10T14:56:32;2.40;;;1.37;;
78740;SDS011;68062;48.726;9.370;2023-05-10T14:58:59;1.83;;;1.73;;
78740;SDS011;68062;48.726;9.370;2023-05-10T15:01:25;1.97;;;1.53;;
78740;SDS011;68062;48.726;9.370;2023-05-10T15:03:52;2.00;;;1.47;;
78740;SDS011;68062;48.726;9.370;2023-05-10T15:06:22;2.43;;;1.67;;
78740;SDS011;68062;48.726;9.370;2023-05-10T15:08:50;2.20;;;1.20;;
78740;SDS011;68062;48.726;9.370;2023-05-10T15:11:18;4.80;;;1.70;;
78740;SDS011;68062;48.726;9.370;2023-05-10T15:13:46;1.93;;;1.50;;
78740;SDS011;68062;48.726;9.370;2023-05-10T15:16:13;1.93;;;1.80;;
78740;SDS011;68062;48.726;9.370;2023-05-10T15:18:40;2.90;;;1.60;;
78740;SDS011;68062;48.726;9.370;2023-05-10T15:21:07;1.73;;;1.63;;
78740;SDS011;68062;48.726;9.370;2023-05-10T15:23:34;2.40;;;1.40;;
78740;SDS011;68062;48.726;9.370;2023-05-10T15:26:00;6.83;;;2.30;;
78740;SDS011;68062;48.726;9.370;2023-05-10T15:28:27;2.70;;;1.77;;
78740;SDS011;68062;48.726;9.370;2023-05-10T15:30:56;2.40;;;1.87;;
78740;SDS011;68062;48.726;9.370;2023-05-10T15:33:23;3.93;;;2.30;;
78740;SDS011;68062;48.726;9.370;2023-05-10T15:35:50;1.43;;;1.40;;